createdAt,value
2017-10-06T00:00:01.895Z,1.3
2017-10-06T00:01:04.657Z,1.2
2017-10-06T00:02:07.102Z,1.2
2017-10-06T00:03:09.538Z,1.2
2017-10-06T00:04:12.311Z,1.3
2017-10-06T00:05:14.749Z,1.2
2017-10-06T00:06:17.182Z,1.3
2017-10-06T00:07:19.614Z,1.2
2017-10-06T00:08:22.057Z,1.3
2017-10-06T00:09:24.494Z,1.2
2017-10-06T00:10:26.925Z,1.2
2017-10-06T00:11:29.363Z,1.2
2017-10-06T00:12:31.796Z,1.2
2017-10-06T00:13:34.232Z,1.2
2017-10-06T00:14:36.667Z,1.3
2017-10-06T00:15:39.106Z,1.2
2017-10-06T00:16:41.544Z,1.2
2017-10-06T00:17:43.975Z,1.2
2017-10-06T00:18:46.404Z,1.2
2017-10-06T00:19:48.840Z,1.2
2017-10-06T00:20:51.271Z,1.2
2017-10-06T00:21:53.712Z,1.2
2017-10-06T00:22:56.479Z,1.2
2017-10-06T00:23:58.922Z,1.2
2017-10-06T00:25:01.364Z,1.2
2017-10-06T00:26:03.795Z,1.2
2017-10-06T00:27:06.230Z,1.2
2017-10-06T00:28:08.674Z,1.2
2017-10-06T00:29:11.103Z,1.3
2017-10-06T00:30:13.538Z,1.3
2017-10-06T00:31:15.966Z,1.3
2017-10-06T00:32:18.401Z,1.2
2017-10-06T00:33:21.182Z,1.2
2017-10-06T00:34:23.620Z,1.2
2017-10-06T00:35:26.046Z,1.2
2017-10-06T00:36:28.487Z,1.2
2017-10-06T00:37:30.930Z,1.2
2017-10-06T00:38:33.359Z,1.2
2017-10-06T00:39:35.808Z,1.2
2017-10-06T00:40:38.236Z,1.2
2017-10-06T00:41:40.673Z,1.2
2017-10-06T00:42:43.108Z,1.2
2017-10-06T00:43:45.552Z,1.2
2017-10-06T00:44:47.986Z,1.2
2017-10-06T00:45:50.427Z,1.2
2017-10-06T00:46:52.854Z,1.2
2017-10-06T00:47:55.288Z,1.2
2017-10-06T00:48:57.726Z,1.3
2017-10-06T00:50:00.501Z,1.2
2017-10-06T00:51:02.921Z,1.2
2017-10-06T00:52:05.357Z,1.2
2017-10-06T00:53:07.789Z,1.3
2017-10-06T00:54:10.234Z,1.3
2017-10-06T00:55:13.043Z,1.2
2017-10-06T00:56:15.474Z,1.2
2017-10-06T00:57:17.912Z,1.3
2017-10-06T00:58:20.351Z,1.2
2017-10-06T00:59:22.782Z,1.2
2017-10-06T01:00:25.212Z,1.2
2017-10-06T01:01:27.648Z,1.2
2017-10-06T01:02:30.078Z,1.2
2017-10-06T01:03:32.518Z,1.2
2017-10-06T01:04:34.953Z,1.2
2017-10-06T01:05:37.382Z,1.2
2017-10-06T01:06:39.822Z,1.2
2017-10-06T01:07:42.259Z,1.2
2017-10-06T01:08:44.691Z,1.2
2017-10-06T01:09:47.132Z,1.2
2017-10-06T01:10:49.561Z,1.2
2017-10-06T01:11:52.000Z,1.2
2017-10-06T01:12:54.440Z,1.2
2017-10-06T01:13:56.876Z,1.2
2017-10-06T01:14:59.993Z,1.3
2017-10-06T01:16:02.427Z,1.2
2017-10-06T01:17:04.849Z,1.2
2017-10-06T01:18:07.293Z,1.2
2017-10-06T01:19:09.721Z,1.2
2017-10-06T01:20:12.155Z,1.2
2017-10-06T01:21:14.586Z,1.2
2017-10-06T01:22:17.021Z,1.2
2017-10-06T01:23:19.807Z,1.2
2017-10-06T01:24:22.242Z,1.3
2017-10-06T01:25:24.674Z,1.2
2017-10-06T01:26:27.115Z,1.2
2017-10-06T01:27:29.540Z,1.2
2017-10-06T01:28:31.974Z,1.2
2017-10-06T01:29:34.420Z,1.2
2017-10-06T01:30:36.848Z,1.2
2017-10-06T01:31:39.304Z,1.3
2017-10-06T01:32:41.723Z,1.2
2017-10-06T01:33:44.158Z,1.2
2017-10-06T01:34:46.597Z,1.2
2017-10-06T01:35:49.034Z,1.2
2017-10-06T01:36:51.458Z,1.2
2017-10-06T01:37:53.894Z,1.2
2017-10-06T01:38:56.327Z,1.2
2017-10-06T01:39:58.766Z,1.2
2017-10-06T01:41:01.202Z,1.2
2017-10-06T01:42:03.983Z,1.2
2017-10-06T01:43:06.417Z,1.2
2017-10-06T01:44:08.855Z,1.2
2017-10-06T01:45:11.286Z,1.2
2017-10-06T01:46:13.726Z,1.2
2017-10-06T01:47:16.160Z,1.2
2017-10-06T01:48:18.597Z,1.2
2017-10-06T01:49:21.039Z,1.2
2017-10-06T01:50:23.480Z,1.2
2017-10-06T01:51:25.903Z,1.2
2017-10-06T01:52:28.335Z,1.2
2017-10-06T01:53:31.126Z,1.2
2017-10-06T01:54:33.557Z,1.2
2017-10-06T01:55:35.985Z,1.2
2017-10-06T01:56:38.418Z,1.2
2017-10-06T01:57:40.854Z,1.2
2017-10-06T01:58:43.290Z,1.2
2017-10-06T01:59:45.734Z,1.2
2017-10-06T02:00:48.535Z,1.2
2017-10-06T02:01:50.968Z,1.2
2017-10-06T02:02:53.407Z,1.2
2017-10-06T02:03:55.838Z,1.2
2017-10-06T02:04:58.266Z,1.2
2017-10-06T02:06:00.694Z,1.2
2017-10-06T02:07:03.119Z,1.2
2017-10-06T02:08:06.264Z,1.2
2017-10-06T02:09:08.700Z,1.2
2017-10-06T02:10:11.129Z,1.3
2017-10-06T02:11:13.565Z,1.2
2017-10-06T02:12:16.000Z,1.2
2017-10-06T02:13:18.433Z,1.2
2017-10-06T02:14:20.871Z,1.2
2017-10-06T02:15:23.295Z,1.2
2017-10-06T02:16:25.729Z,1.2
2017-10-06T02:17:28.176Z,1.2
2017-10-06T02:18:30.950Z,1.2
2017-10-06T02:19:33.379Z,1.2
2017-10-06T02:20:36.158Z,1.2
2017-10-06T02:21:38.588Z,1.2
2017-10-06T02:22:41.021Z,1.2
2017-10-06T02:23:43.450Z,1.2
2017-10-06T02:24:45.889Z,1.2
2017-10-06T02:25:48.670Z,1.2
2017-10-06T02:26:51.091Z,1.2
2017-10-06T02:27:53.538Z,1.2
2017-10-06T02:28:56.313Z,1.2
2017-10-06T02:29:58.754Z,1.2
2017-10-06T02:31:01.198Z,1.2
2017-10-06T02:32:03.957Z,1.2
2017-10-06T02:33:06.384Z,1.2
2017-10-06T02:34:08.827Z,1.2
2017-10-06T02:35:11.256Z,1.2
2017-10-06T02:36:13.692Z,1.2
2017-10-06T02:37:16.127Z,1.2
2017-10-06T02:38:18.556Z,1.2
2017-10-06T02:39:20.996Z,1.2
2017-10-06T02:40:23.440Z,1.2
2017-10-06T02:41:25.847Z,1.2
2017-10-06T02:42:28.285Z,1.2
2017-10-06T02:43:30.721Z,1.2
2017-10-06T02:44:33.164Z,1.2
2017-10-06T02:45:35.597Z,1.2
2017-10-06T02:46:38.031Z,1.2
2017-10-06T02:47:40.467Z,1.2
2017-10-06T02:48:42.911Z,1.2
2017-10-06T02:49:45.681Z,1.2
2017-10-06T02:50:48.107Z,1.2
2017-10-06T02:51:50.542Z,1.2
2017-10-06T02:52:52.969Z,1.2
2017-10-06T02:53:55.412Z,1.2
2017-10-06T02:54:57.853Z,1.2
2017-10-06T02:56:00.288Z,1.2
2017-10-06T02:57:02.723Z,1.2
2017-10-06T02:58:05.162Z,1.2
2017-10-06T02:59:07.594Z,1.2
2017-10-06T03:00:10.042Z,1.2
2017-10-06T03:01:12.460Z,1.2
2017-10-06T03:02:15.230Z,1.2
2017-10-06T03:03:17.658Z,1.2
2017-10-06T03:04:20.430Z,1.2
2017-10-06T03:05:22.864Z,1.2
2017-10-06T03:06:25.304Z,1.2
2017-10-06T03:07:27.730Z,1.2
2017-10-06T03:08:30.175Z,1.2
2017-10-06T03:09:32.610Z,1.2
2017-10-06T03:10:35.045Z,1.2
2017-10-06T03:11:37.477Z,1.2
2017-10-06T03:12:40.262Z,1.2
2017-10-06T03:13:42.692Z,1.2
2017-10-06T03:14:45.134Z,1.2
2017-10-06T03:15:47.568Z,1.2
2017-10-06T03:16:50.363Z,1.2
2017-10-06T03:17:52.791Z,1.2
2017-10-06T03:18:55.225Z,1.2
2017-10-06T03:19:57.654Z,1.2
2017-10-06T03:21:00.086Z,1.2
2017-10-06T03:22:02.521Z,1.2
2017-10-06T03:23:04.960Z,1.2
2017-10-06T03:24:07.388Z,1.2
2017-10-06T03:25:09.822Z,1.2
2017-10-06T03:26:12.263Z,1.2
2017-10-06T03:27:14.692Z,1.2
2017-10-06T03:28:17.119Z,1.2
2017-10-06T03:29:19.552Z,1.2
2017-10-06T03:30:21.979Z,1.2
2017-10-06T03:31:24.419Z,1.2
2017-10-06T03:32:26.858Z,1.2
2017-10-06T03:33:29.279Z,1.2
2017-10-06T03:34:31.718Z,1.2
2017-10-06T03:35:34.159Z,1.2
2017-10-06T03:36:36.591Z,1.2
2017-10-06T03:37:39.031Z,1.2
2017-10-06T03:38:41.460Z,1.2
2017-10-06T03:39:43.902Z,1.2
2017-10-06T03:40:46.348Z,1.2
2017-10-06T03:41:49.121Z,1.2
2017-10-06T03:42:51.558Z,1.2
2017-10-06T03:43:53.992Z,1.2
2017-10-06T03:44:56.422Z,1.2
2017-10-06T03:45:58.859Z,1.2
2017-10-06T03:47:01.294Z,1.2
2017-10-06T03:48:03.720Z,1.2
2017-10-06T03:49:06.496Z,1.2
2017-10-06T03:50:08.936Z,1.2
2017-10-06T03:51:11.373Z,1.2
2017-10-06T03:52:13.802Z,1.2
2017-10-06T03:53:16.243Z,1.2
2017-10-06T03:54:18.677Z,1.2
2017-10-06T03:55:21.101Z,1.2
2017-10-06T03:56:23.528Z,1.2
2017-10-06T03:57:25.956Z,1.2
2017-10-06T03:58:28.751Z,1.2
2017-10-06T03:59:31.192Z,1.2
2017-10-06T04:00:33.621Z,1.3
2017-10-06T04:01:36.056Z,1.2
2017-10-06T04:02:38.490Z,1.2
2017-10-06T04:03:40.938Z,1.2
2017-10-06T04:04:43.719Z,1.2
2017-10-06T04:05:46.510Z,1.2
2017-10-06T04:06:49.287Z,1.2
2017-10-06T04:07:51.724Z,1.2
2017-10-06T04:08:54.163Z,1.2
2017-10-06T04:09:56.941Z,1.2
2017-10-06T04:10:59.376Z,1.2
2017-10-06T04:12:01.808Z,1.2
2017-10-06T04:13:04.238Z,1.2
2017-10-06T04:14:06.676Z,1.2
2017-10-06T04:15:09.104Z,1.2
2017-10-06T04:16:11.534Z,1.2
2017-10-06T04:17:13.966Z,1.2
2017-10-06T04:18:16.406Z,1.2
2017-10-06T04:19:18.842Z,1.2
2017-10-06T04:20:21.276Z,1.3
2017-10-06T04:21:23.714Z,1.2
2017-10-06T04:22:26.147Z,1.2
2017-10-06T04:23:28.907Z,1.2
2017-10-06T04:24:31.342Z,1.2
2017-10-06T04:25:34.133Z,1.2
2017-10-06T04:26:36.565Z,1.2
2017-10-06T04:27:39.001Z,1.2
2017-10-06T04:28:41.435Z,1.2
2017-10-06T04:29:43.872Z,1.2
2017-10-06T04:30:46.324Z,1.2
2017-10-06T04:31:48.755Z,1.2
2017-10-06T04:32:51.191Z,1.2
2017-10-06T04:33:53.624Z,1.2
2017-10-06T04:34:56.056Z,1.2
2017-10-06T04:35:58.498Z,1.2
2017-10-06T04:37:00.938Z,1.2
2017-10-06T04:38:03.362Z,1.2
2017-10-06T04:39:06.142Z,1.2
2017-10-06T04:40:08.574Z,1.2
2017-10-06T04:41:11.002Z,1.2
2017-10-06T04:42:13.442Z,1.2
2017-10-06T04:43:15.872Z,1.2
2017-10-06T04:44:18.300Z,1.2
2017-10-06T04:45:20.740Z,1.2
2017-10-06T04:46:23.172Z,1.2
2017-10-06T04:47:25.632Z,1.2
2017-10-06T04:48:28.388Z,1.2
2017-10-06T04:49:30.823Z,1.2
2017-10-06T04:50:33.254Z,1.2
2017-10-06T04:51:35.683Z,1.2
2017-10-06T04:52:38.121Z,1.2
2017-10-06T04:53:40.557Z,1.3
2017-10-06T04:54:43.004Z,1.3
2017-10-06T04:55:45.448Z,1.2
2017-10-06T04:56:47.879Z,1.2
2017-10-06T04:57:50.669Z,1.2
2017-10-06T04:58:53.104Z,1.2
2017-10-06T04:59:55.540Z,1.2
2017-10-06T05:00:57.971Z,1.2
2017-10-06T05:02:00.411Z,1.2
2017-10-06T05:03:02.849Z,1.2
2017-10-06T05:04:05.282Z,1.2
2017-10-06T05:05:07.723Z,1.2
2017-10-06T05:06:10.146Z,1.2
2017-10-06T05:07:12.590Z,1.2
2017-10-06T05:08:15.024Z,1.2
2017-10-06T05:09:17.456Z,1.2
2017-10-06T05:10:19.881Z,1.2
2017-10-06T05:11:22.657Z,1.2
2017-10-06T05:12:25.085Z,1.2
2017-10-06T05:13:27.532Z,1.2
2017-10-06T05:14:29.966Z,1.2
2017-10-06T05:15:32.396Z,1.2
2017-10-06T05:16:34.844Z,1.2
2017-10-06T05:17:37.282Z,1.2
2017-10-06T05:18:39.717Z,1.2
2017-10-06T05:19:42.146Z,1.2
2017-10-06T05:20:44.591Z,1.2
2017-10-06T05:21:47.020Z,1.2
2017-10-06T05:22:49.790Z,1.2
2017-10-06T05:23:52.228Z,1.2
2017-10-06T05:24:54.668Z,1.2
2017-10-06T05:25:57.096Z,1.2
2017-10-06T05:26:59.540Z,1.2
2017-10-06T05:28:01.962Z,1.2
2017-10-06T05:29:04.404Z,1.3
2017-10-06T05:30:06.844Z,1.2
2017-10-06T05:31:09.274Z,1.2
2017-10-06T05:32:11.711Z,1.2
2017-10-06T05:33:14.486Z,1.2
2017-10-06T05:34:16.921Z,1.2
2017-10-06T05:35:19.352Z,1.2
2017-10-06T05:36:21.795Z,1.2
2017-10-06T05:37:24.220Z,1.2
2017-10-06T05:38:26.660Z,1.2
2017-10-06T05:39:29.092Z,1.2
2017-10-06T05:40:31.525Z,1.2
2017-10-06T05:41:33.954Z,1.3
2017-10-06T05:42:36.390Z,1.2
2017-10-06T05:43:38.825Z,1.2
2017-10-06T05:44:41.264Z,1.2
2017-10-06T05:45:43.696Z,1.2
2017-10-06T05:46:46.129Z,1.2
2017-10-06T05:47:48.893Z,1.2
2017-10-06T05:48:51.340Z,1.2
2017-10-06T05:49:53.774Z,1.2
2017-10-06T05:50:56.210Z,1.2
2017-10-06T05:51:58.641Z,1.2
2017-10-06T05:53:01.083Z,1.2
2017-10-06T05:54:03.857Z,1.2
2017-10-06T05:55:06.985Z,1.2
2017-10-06T05:56:09.428Z,1.2
2017-10-06T05:57:11.860Z,1.2
2017-10-06T05:58:14.653Z,1.2
2017-10-06T05:59:17.086Z,1.2
2017-10-06T06:00:19.510Z,1.2
2017-10-06T06:01:21.958Z,1.2
2017-10-06T06:02:24.384Z,1.2
2017-10-06T06:03:26.814Z,1.2
2017-10-06T06:04:29.250Z,1.2
2017-10-06T06:05:31.681Z,1.2
2017-10-06T06:06:34.116Z,1.2
2017-10-06T06:07:36.552Z,1.2
2017-10-06T06:08:39.682Z,1.2
2017-10-06T06:09:42.112Z,1.2
2017-10-06T06:10:44.556Z,1.2
2017-10-06T06:11:46.980Z,1.2
2017-10-06T06:12:49.421Z,1.2
2017-10-06T06:13:51.850Z,1.2
2017-10-06T06:14:54.279Z,1.2
2017-10-06T06:15:56.711Z,1.2
2017-10-06T06:16:59.146Z,1.2
2017-10-06T06:18:01.578Z,1.2
2017-10-06T06:19:04.020Z,1.2
2017-10-06T06:20:06.456Z,1.2
2017-10-06T06:21:08.893Z,1.2
2017-10-06T06:22:11.324Z,1.2
2017-10-06T06:23:13.765Z,1.2
2017-10-06T06:24:16.206Z,1.2
2017-10-06T06:25:18.635Z,1.3
2017-10-06T06:26:21.076Z,1.2
2017-10-06T06:27:23.505Z,1.2
2017-10-06T06:28:26.283Z,1.2
2017-10-06T06:29:28.718Z,1.2
2017-10-06T06:30:31.156Z,1.2
2017-10-06T06:31:33.591Z,1.2
2017-10-06T06:32:36.373Z,1.2
2017-10-06T06:33:38.805Z,1.2
2017-10-06T06:34:41.238Z,1.3
2017-10-06T06:35:43.674Z,1.3
2017-10-06T06:36:46.098Z,1.3
2017-10-06T06:37:48.876Z,1.2
2017-10-06T06:38:51.323Z,1.2
2017-10-06T06:39:53.754Z,1.3
2017-10-06T06:40:56.184Z,1.3
2017-10-06T06:41:58.623Z,1.2
2017-10-06T06:43:01.058Z,1.3
2017-10-06T06:44:03.498Z,1.3
2017-10-06T06:45:05.934Z,1.3
2017-10-06T06:46:08.365Z,1.2
2017-10-06T06:47:10.807Z,1.2
2017-10-06T06:48:13.244Z,1.2
2017-10-06T06:49:15.685Z,1.2
2017-10-06T06:50:18.130Z,1.2
2017-10-06T06:51:20.553Z,1.3
2017-10-06T06:52:22.992Z,1.2
2017-10-06T06:53:25.429Z,1.3
2017-10-06T06:54:27.853Z,1.2
2017-10-06T06:55:30.291Z,1.3
2017-10-06T06:56:32.722Z,1.2
2017-10-06T06:57:35.501Z,1.3
2017-10-06T06:58:38.285Z,1.2
2017-10-06T06:59:40.712Z,1.2
2017-10-06T07:00:43.150Z,1.2
2017-10-06T07:01:45.590Z,1.3
2017-10-06T07:02:48.031Z,1.2
2017-10-06T07:03:50.468Z,1.2
2017-10-06T07:04:52.911Z,1.2
2017-10-06T07:05:55.345Z,1.2
2017-10-06T07:06:57.787Z,1.3
2017-10-06T07:08:00.224Z,1.3
2017-10-06T07:09:02.661Z,1.2
2017-10-06T07:10:05.107Z,1.3
2017-10-06T07:11:07.530Z,1.2
2017-10-06T07:12:10.298Z,1.2
2017-10-06T07:13:12.733Z,1.2
2017-10-06T07:14:15.173Z,1.2
2017-10-06T07:15:17.613Z,1.3
2017-10-06T07:16:20.044Z,1.3
2017-10-06T07:17:22.491Z,1.3
2017-10-06T07:18:24.920Z,1.3
2017-10-06T07:19:27.358Z,1.2
2017-10-06T07:20:29.791Z,1.3
2017-10-06T07:21:32.227Z,1.3
2017-10-06T07:22:34.655Z,1.2
2017-10-06T07:23:37.090Z,1.3
2017-10-06T07:24:39.526Z,1.2
2017-10-06T07:25:41.955Z,1.2
2017-10-06T07:26:44.395Z,1.3
2017-10-06T07:27:46.831Z,1.2
2017-10-06T07:28:49.267Z,1.2
2017-10-06T07:29:51.707Z,1.3
2017-10-06T07:30:54.143Z,1.3
2017-10-06T07:31:56.579Z,1.3
2017-10-06T07:32:59.021Z,1.2
2017-10-06T07:34:01.449Z,1.2
2017-10-06T07:35:03.887Z,1.2
2017-10-06T07:36:06.328Z,1.2
2017-10-06T07:37:08.766Z,1.3
2017-10-06T07:38:11.196Z,1.2
2017-10-06T07:39:13.629Z,1.2
2017-10-06T07:40:16.061Z,1.3
2017-10-06T07:41:18.506Z,1.2
2017-10-06T07:42:20.948Z,1.3
2017-10-06T07:43:23.383Z,1.3
2017-10-06T07:44:25.826Z,1.3
2017-10-06T07:45:28.263Z,1.3
2017-10-06T07:46:30.701Z,1.3
2017-10-06T07:47:33.138Z,1.3
2017-10-06T07:48:35.573Z,1.2
2017-10-06T07:49:38.019Z,1.3
2017-10-06T07:50:40.442Z,1.3
2017-10-06T07:51:42.879Z,1.3
2017-10-06T07:52:45.316Z,1.3
2017-10-06T07:53:47.754Z,1.3
2017-10-06T07:54:50.198Z,1.3
2017-10-06T07:55:52.636Z,1.3
2017-10-06T07:56:55.417Z,1.3
2017-10-06T07:57:57.866Z,1.3
2017-10-06T07:59:00.308Z,1.3
2017-10-06T08:00:02.750Z,1.3
2017-10-06T08:01:05.183Z,1.3
2017-10-06T08:02:07.646Z,1.3
2017-10-06T08:03:10.084Z,1.3
2017-10-06T08:04:12.520Z,1.3
2017-10-06T08:05:14.962Z,1.3
2017-10-06T08:06:17.393Z,1.3
2017-10-06T08:07:19.837Z,1.3
2017-10-06T08:08:22.277Z,1.3
2017-10-06T08:09:24.710Z,1.3
2017-10-06T08:10:27.154Z,1.3
2017-10-06T08:11:29.597Z,1.3
2017-10-06T08:12:32.034Z,1.3
2017-10-06T08:13:34.480Z,1.3
2017-10-06T08:14:37.249Z,1.3
2017-10-06T08:15:39.683Z,1.3
2017-10-06T08:16:42.138Z,1.3
2017-10-06T08:17:44.565Z,1.3
2017-10-06T08:18:47.002Z,1.4
2017-10-06T08:19:49.436Z,1.4
2017-10-06T08:20:51.883Z,1.3
2017-10-06T08:21:54.683Z,1.4
2017-10-06T08:22:57.120Z,1.4
2017-10-06T08:23:59.569Z,1.3
2017-10-06T08:25:02.006Z,1.3
2017-10-06T08:26:04.449Z,1.3
2017-10-06T08:27:06.889Z,1.3
2017-10-06T08:28:09.324Z,1.4
2017-10-06T08:29:11.769Z,1.4
2017-10-06T08:30:14.212Z,1.4
2017-10-06T08:31:16.992Z,1.5
2017-10-06T08:32:19.435Z,1.4
2017-10-06T08:33:21.867Z,1.5
2017-10-06T08:34:24.308Z,1.4
2017-10-06T08:35:26.752Z,1.5
2017-10-06T08:36:29.190Z,1.5
2017-10-06T08:37:31.630Z,1.4
2017-10-06T08:38:34.077Z,1.5
2017-10-06T08:39:36.852Z,1.4
2017-10-06T08:40:39.297Z,1.5
2017-10-06T08:41:42.077Z,1.5
2017-10-06T08:42:44.515Z,1.5
2017-10-06T08:43:46.953Z,1.5
2017-10-06T08:44:49.391Z,1.5
2017-10-06T08:45:51.831Z,1.5
2017-10-06T08:46:54.621Z,1.5
2017-10-06T08:47:57.394Z,1.5
2017-10-06T08:48:59.828Z,1.5
2017-10-06T08:50:02.279Z,1.5
2017-10-06T08:51:04.715Z,1.5
2017-10-06T08:52:07.496Z,1.5
2017-10-06T08:53:09.937Z,1.5
2017-10-06T08:54:12.375Z,1.5
2017-10-06T08:55:14.815Z,1.5
2017-10-06T08:56:17.262Z,1.6
2017-10-06T08:57:19.714Z,1.6
2017-10-06T08:58:22.156Z,1.6
2017-10-06T08:59:24.939Z,1.6
2017-10-06T09:00:27.372Z,1.6
2017-10-06T09:01:29.813Z,1.6
2017-10-06T09:02:32.251Z,1.6
2017-10-06T09:03:34.690Z,1.7
2017-10-06T09:04:37.143Z,1.7
2017-10-06T09:05:39.586Z,1.7
2017-10-06T09:06:42.042Z,1.7
2017-10-06T09:07:44.485Z,1.8
2017-10-06T09:08:46.929Z,1.8
2017-10-06T09:09:49.370Z,1.8
2017-10-06T09:10:51.821Z,1.8
2017-10-06T09:11:54.252Z,1.8
2017-10-06T09:12:56.698Z,1.8
2017-10-06T09:13:59.154Z,1.9
2017-10-06T09:15:01.594Z,1.8
2017-10-06T09:16:04.037Z,1.8
2017-10-06T09:17:06.483Z,1.9
2017-10-06T09:18:08.924Z,1.9
2017-10-06T09:19:11.367Z,1.8
2017-10-06T09:20:13.807Z,1.8
2017-10-06T09:21:16.247Z,1.9
2017-10-06T09:22:18.700Z,1.8
2017-10-06T09:23:21.144Z,1.9
2017-10-06T09:24:23.598Z,1.9
2017-10-06T09:25:26.045Z,1.9
2017-10-06T09:26:28.495Z,1.9
2017-10-06T09:27:30.942Z,1.9
2017-10-06T09:28:33.388Z,1.9
2017-10-06T09:29:35.827Z,1.9
2017-10-06T09:30:38.280Z,1.9
2017-10-06T09:31:41.110Z,1.8
2017-10-06T09:32:43.578Z,1.9
2017-10-06T09:33:46.025Z,1.9
2017-10-06T09:34:48.497Z,1.8
2017-10-06T09:35:50.965Z,1.8
2017-10-06T09:36:53.396Z,1.8
2017-10-06T09:37:56.173Z,1.8
2017-10-06T09:38:58.781Z,1.8
2017-10-06T09:40:01.217Z,1.8
2017-10-06T09:41:03.666Z,1.9
2017-10-06T09:42:06.106Z,1.8
2017-10-06T09:43:08.556Z,1.9
2017-10-06T09:44:11.000Z,1.8
2017-10-06T09:45:13.451Z,1.9
2017-10-06T09:46:15.894Z,1.8
2017-10-06T09:47:18.344Z,1.8
2017-10-06T09:48:20.795Z,1.8
2017-10-06T09:49:23.238Z,1.8
2017-10-06T09:50:25.692Z,1.8
2017-10-06T09:51:28.487Z,1.8
2017-10-06T09:52:31.341Z,1.7
2017-10-06T09:53:33.807Z,1.8
2017-10-06T09:54:36.616Z,1.8
2017-10-06T09:55:39.405Z,1.8
2017-10-06T09:56:41.850Z,1.8
2017-10-06T09:57:44.290Z,1.8
2017-10-06T09:58:46.740Z,1.8
2017-10-06T09:59:49.176Z,1.8
2017-10-06T10:00:51.623Z,1.8
2017-10-06T10:01:54.061Z,1.8
2017-10-06T10:02:56.509Z,1.7
2017-10-06T10:03:58.945Z,1.7
2017-10-06T10:05:01.386Z,1.8
2017-10-06T10:06:03.824Z,1.8
2017-10-06T10:07:06.609Z,1.8
2017-10-06T10:08:09.051Z,1.8
2017-10-06T10:09:11.856Z,1.9
2017-10-06T10:10:14.296Z,1.9
2017-10-06T10:11:16.772Z,1.9
2017-10-06T10:12:19.214Z,1.9
2017-10-06T10:13:21.664Z,1.9
2017-10-06T10:14:24.101Z,1.9
2017-10-06T10:15:26.547Z,1.9
2017-10-06T10:16:28.982Z,1.9
2017-10-06T10:17:31.429Z,1.9
2017-10-06T10:18:33.875Z,1.9
2017-10-06T10:19:36.315Z,1.9
2017-10-06T10:20:38.771Z,1.9
2017-10-06T10:21:41.216Z,1.9
2017-10-06T10:22:43.650Z,1.9
2017-10-06T10:23:46.100Z,1.9
2017-10-06T10:24:48.537Z,1.9
2017-10-06T10:25:50.976Z,1.9
2017-10-06T10:26:53.419Z,1.9
2017-10-06T10:27:55.857Z,1.8
2017-10-06T10:28:58.303Z,1.8
2017-10-06T10:30:00.757Z,1.9
2017-10-06T10:31:03.193Z,1.8
2017-10-06T10:32:05.637Z,1.9
2017-10-06T10:33:08.072Z,1.9
2017-10-06T10:34:10.507Z,1.9
2017-10-06T10:35:12.956Z,1.9
2017-10-06T10:36:15.398Z,1.9
2017-10-06T10:37:18.180Z,1.9
2017-10-06T10:38:20.631Z,1.9
2017-10-06T10:39:23.075Z,1.9
2017-10-06T10:40:25.861Z,1.9
2017-10-06T10:41:28.314Z,1.9
2017-10-06T10:42:30.754Z,1.9
2017-10-06T10:43:33.195Z,1.9
2017-10-06T10:44:35.648Z,2
2017-10-06T10:45:38.085Z,2
2017-10-06T10:46:40.541Z,2
2017-10-06T10:47:43.002Z,2
2017-10-06T10:48:45.770Z,2
2017-10-06T10:49:48.227Z,2
2017-10-06T10:50:50.669Z,2
2017-10-06T10:51:53.109Z,2
2017-10-06T10:52:55.555Z,2
2017-10-06T10:53:57.991Z,2
2017-10-06T10:55:00.437Z,2
2017-10-06T10:56:02.892Z,2
2017-10-06T10:57:05.331Z,2.1
2017-10-06T10:58:07.783Z,2.1
2017-10-06T10:59:10.227Z,2.1
2017-10-06T11:00:12.673Z,2.1
2017-10-06T11:01:15.133Z,2.2
2017-10-06T11:02:17.573Z,2.2
2017-10-06T11:03:20.016Z,2.2
2017-10-06T11:04:22.467Z,2.2
2017-10-06T11:05:24.911Z,2.2
2017-10-06T11:06:27.361Z,2.1
2017-10-06T11:07:29.811Z,2.2
2017-10-06T11:08:32.251Z,2.1
2017-10-06T11:09:34.698Z,2.1
2017-10-06T11:10:37.149Z,2.1
2017-10-06T11:11:39.588Z,2
2017-10-06T11:12:42.031Z,2.1
2017-10-06T11:13:44.476Z,2
2017-10-06T11:14:46.926Z,2
2017-10-06T11:15:49.372Z,2
2017-10-06T11:16:51.816Z,2
2017-10-06T11:17:54.268Z,1.9
2017-10-06T11:18:56.709Z,2
2017-10-06T11:19:59.143Z,1.9
2017-10-06T11:21:01.589Z,1.9
2017-10-06T11:22:04.036Z,2
2017-10-06T11:23:06.477Z,2
2017-10-06T11:24:08.922Z,2
2017-10-06T11:25:11.369Z,2
2017-10-06T11:26:13.811Z,2
2017-10-06T11:27:16.620Z,2
2017-10-06T11:28:19.403Z,2.1
2017-10-06T11:29:21.848Z,2
2017-10-06T11:30:24.296Z,2
2017-10-06T11:31:27.084Z,2.1
2017-10-06T11:32:29.535Z,2
2017-10-06T11:33:31.989Z,2.1
2017-10-06T11:34:34.430Z,2.1
2017-10-06T11:35:36.880Z,2.1
2017-10-06T11:36:39.328Z,2.2
2017-10-06T11:37:42.116Z,2.2
2017-10-06T11:38:44.559Z,2.1
2017-10-06T11:39:47.841Z,2.2
2017-10-06T11:40:50.283Z,2.2
2017-10-06T11:41:52.732Z,2.3
2017-10-06T11:42:56.115Z,2.2
2017-10-06T11:43:58.571Z,2.2
2017-10-06T11:45:01.031Z,2.3
2017-10-06T11:46:03.477Z,2.3
2017-10-06T11:47:05.922Z,2.4
2017-10-06T11:48:08.367Z,2.4
2017-10-06T11:49:10.813Z,2.4
2017-10-06T11:50:13.262Z,2.4
2017-10-06T11:51:15.706Z,2.5
2017-10-06T11:52:18.163Z,2.5
2017-10-06T11:53:20.613Z,2.5
2017-10-06T11:54:23.070Z,2.5
2017-10-06T11:55:25.527Z,2.6
2017-10-06T11:56:27.976Z,2.6
2017-10-06T11:57:30.426Z,2.6
2017-10-06T11:58:32.876Z,2.6
2017-10-06T11:59:35.328Z,2.7
2017-10-06T12:00:37.781Z,2.7
2017-10-06T12:01:40.232Z,2.6
2017-10-06T12:02:43.127Z,2.6
2017-10-06T12:03:46.737Z,2.7
2017-10-06T12:04:49.186Z,2.7
2017-10-06T12:05:51.631Z,2.8
2017-10-06T12:06:54.082Z,2.8
2017-10-06T12:07:56.532Z,2.7
2017-10-06T12:08:58.976Z,2.8
2017-10-06T12:10:01.432Z,2.8
2017-10-06T12:11:04.225Z,2.8
2017-10-06T12:12:07.023Z,2.7
2017-10-06T12:13:09.841Z,3.1
2017-10-06T12:14:12.292Z,2.8
2017-10-06T12:15:14.740Z,2.8
2017-10-06T12:16:17.192Z,2.8
2017-10-06T12:17:19.638Z,2.7
2017-10-06T12:18:22.439Z,2.8
2017-10-06T12:19:24.883Z,2.7
2017-10-06T12:20:27.339Z,2.8
2017-10-06T12:21:29.794Z,2.8
2017-10-06T12:22:32.592Z,2.8
2017-10-06T12:23:35.049Z,2.8
2017-10-06T12:24:37.499Z,2.8
2017-10-06T12:25:39.945Z,2.9
2017-10-06T12:26:42.403Z,2.8
2017-10-06T12:27:44.850Z,2.8
2017-10-06T12:28:47.300Z,2.8
2017-10-06T12:29:49.758Z,2.7
2017-10-06T12:30:52.209Z,2.7
2017-10-06T12:31:54.660Z,2.7
2017-10-06T12:32:57.117Z,2.7
2017-10-06T12:33:59.555Z,2.6
2017-10-06T12:35:02.008Z,2.6
2017-10-06T12:36:04.461Z,2.7
2017-10-06T12:37:06.901Z,2.7
2017-10-06T12:38:09.355Z,2.7
2017-10-06T12:39:11.817Z,2.6
2017-10-06T12:40:14.261Z,2.6
2017-10-06T12:41:16.720Z,2.6
2017-10-06T12:42:19.169Z,2.5
2017-10-06T12:43:21.962Z,2.5
2017-10-06T12:44:24.757Z,2.4
2017-10-06T12:45:27.206Z,2.5
2017-10-06T12:46:30.001Z,2.5
2017-10-06T12:47:32.447Z,2.5
2017-10-06T12:48:34.899Z,2.4
2017-10-06T12:49:37.344Z,2.4
2017-10-06T12:50:39.787Z,2.4
2017-10-06T12:51:42.240Z,2.3
2017-10-06T12:52:44.688Z,2.3
2017-10-06T12:53:47.129Z,2.3
2017-10-06T12:54:49.918Z,2.3
2017-10-06T12:55:52.362Z,2.3
2017-10-06T12:56:55.155Z,2.2
2017-10-06T12:57:57.613Z,2.2
2017-10-06T12:59:00.051Z,2.2
2017-10-06T13:00:02.498Z,2.2
2017-10-06T13:01:04.943Z,2.2
2017-10-06T13:02:07.381Z,2.2
2017-10-06T13:03:09.830Z,2.2
2017-10-06T13:04:12.277Z,2.2
2017-10-06T13:05:14.724Z,2.2
2017-10-06T13:06:17.175Z,2.2
2017-10-06T13:07:19.625Z,2.1
2017-10-06T13:08:22.068Z,2.2
2017-10-06T13:09:24.517Z,2.1
2017-10-06T13:10:26.959Z,2.2
2017-10-06T13:11:29.744Z,2.2
2017-10-06T13:12:32.549Z,2.2
2017-10-06T13:13:34.993Z,2.2
2017-10-06T13:14:37.433Z,2.2
2017-10-06T13:15:39.881Z,2.2
2017-10-06T13:16:42.542Z,2.2
2017-10-06T13:17:44.995Z,2.2
2017-10-06T13:18:47.779Z,2.1
2017-10-06T13:19:50.232Z,2.2
2017-10-06T13:20:52.672Z,2.2
2017-10-06T13:21:55.129Z,2.2
2017-10-06T13:22:57.571Z,2.2
2017-10-06T13:24:00.013Z,2.2
2017-10-06T13:25:02.461Z,2.2
2017-10-06T13:26:05.269Z,2.2
2017-10-06T13:27:07.718Z,2.2
2017-10-06T13:28:10.162Z,2.3
2017-10-06T13:29:12.606Z,2.3
2017-10-06T13:30:15.046Z,2.3
2017-10-06T13:31:17.495Z,2.3
2017-10-06T13:32:19.945Z,2.3
2017-10-06T13:33:22.384Z,2.3
2017-10-06T13:34:24.837Z,2.3
2017-10-06T13:35:27.286Z,2.3
2017-10-06T13:36:29.738Z,2.4
2017-10-06T13:37:32.189Z,2.3
2017-10-06T13:38:34.636Z,2.3
2017-10-06T13:39:37.080Z,2.3
2017-10-06T13:40:39.531Z,2.4
2017-10-06T13:41:42.323Z,2.4
2017-10-06T13:42:44.764Z,2.4
2017-10-06T13:43:47.215Z,2.4
2017-10-06T13:44:49.666Z,2.4
2017-10-06T13:45:52.107Z,2.5
2017-10-06T13:46:54.558Z,2.4
2017-10-06T13:47:57.008Z,2.5
2017-10-06T13:48:59.807Z,2.5
2017-10-06T13:50:02.255Z,2.4
2017-10-06T13:51:04.703Z,2.4
2017-10-06T13:52:07.154Z,2.7
2017-10-06T13:53:09.603Z,2.5
2017-10-06T13:54:12.049Z,2.5
2017-10-06T13:55:14.497Z,2.4
2017-10-06T13:56:16.941Z,2.4
2017-10-06T13:57:19.396Z,2.5
2017-10-06T13:58:21.835Z,2.5
2017-10-06T13:59:24.294Z,2.4
2017-10-06T14:00:26.736Z,2.4
2017-10-06T14:01:29.188Z,2.4
2017-10-06T14:02:31.635Z,2.4
2017-10-06T14:03:34.091Z,2.4
2017-10-06T14:04:36.532Z,2.4
2017-10-06T14:05:38.984Z,2.4
2017-10-06T14:06:41.425Z,2.7
2017-10-06T14:07:43.873Z,2.4
2017-10-06T14:08:46.325Z,2.5
2017-10-06T14:09:48.772Z,2.4
2017-10-06T14:10:51.222Z,2.4
2017-10-06T14:11:53.681Z,2.4
2017-10-06T14:12:56.132Z,2.4
2017-10-06T14:13:58.580Z,2.4
2017-10-06T14:15:01.035Z,2.4
2017-10-06T14:16:03.495Z,2.4
2017-10-06T14:17:05.944Z,2.4
2017-10-06T14:18:08.387Z,2.4
2017-10-06T14:19:10.839Z,2.4
2017-10-06T14:20:13.289Z,2.4
2017-10-06T14:21:15.753Z,2.4